.
WxDataArchive / Data Records for 2006-05-28
2006-05-27 May 2006 2006-05-29

Data Records for Sunday, 28 May 2006

Time	Temp	Chill	HIndex	Humid	Dewpt	 Wind 	HiWind	WindDir	Rain 	Barom 
-----	----	-----	------	-----	-----	------	------	-------	-----	----- 
00:00	70.3	70.3	70.3	75	62.0	0	2	112	0.00	29.922 
00:05	70.3	70.3	70.3	74	61.6	0	1	112	0.00	29.922 
00:10	70.3	70.3	70.3	75	62.0	0	1	112	0.00	29.922 
00:15	70.3	70.3	70.3	75	62.0	0	1	112	0.00	29.918 
00:20	70.3	70.3	70.3	74	61.6	0	1	112	0.00	29.918 
00:25	70.3	70.3	70.3	74	61.6	0	1	112	0.00	29.918 
00:30	70.3	70.3	70.3	74	61.6	0	1	112	0.00	29.919 
00:35	70.4	70.4	70.4	73	61.3	0	2	112	0.00	29.919 
00:40	70.6	70.6	70.6	73	61.5	0	2	112	0.00	29.919 
00:45	70.6	70.6	70.6	73	61.5	0	1	112	0.00	29.920 
00:50	70.6	70.6	70.6	73	61.5	0	1	112	0.00	29.920 
00:55	70.4	70.4	70.4	73	61.3	0	1	112	0.00	29.920 
01:00	70.3	70.3	70.3	73	61.2	0	1	112	0.00	29.924 
01:05	70.1	70.1	70.1	74	61.4	0	0	---	0.00	29.924 
01:10	69.9	69.9	69.9	74	61.2	0	1	112	0.00	29.924 
01:15	69.6	69.6	69.6	75	61.3	0	1	112	0.00	29.923 
01:20	69.3	69.3	69.3	76	61.4	0	0	---	0.00	29.923 
01:25	68.9	68.9	68.9	76	61.0	0	0	---	0.00	29.923 
01:30	68.6	68.6	68.6	77	61.1	0	0	---	0.00	29.924 
01:35	68.3	68.3	68.3	78	61.2	0	0	---	0.00	29.924 
01:40	67.9	67.9	67.9	78	60.8	0	0	---	0.00	29.924 
01:45	67.6	67.6	67.6	79	60.8	0	0	---	0.00	29.930 
01:50	67.3	67.3	67.3	80	60.9	0	0	---	0.00	29.930 
01:55	66.9	66.9	66.9	80	60.5	0	0	---	0.00	29.930 
02:00	66.6	66.6	66.6	81	60.6	0	0	---	0.00	29.937 
02:05	66.4	66.4	66.4	82	60.7	0	0	---	0.00	29.937 
02:10	66.1	66.1	66.1	82	60.4	0	0	---	0.00	29.937 
02:15	66.0	66.0	66.0	83	60.7	0	0	---	0.00	29.937 
02:20	65.6	65.6	65.6	83	60.3	0	0	---	0.00	29.937 
02:25	65.5	65.5	65.5	84	60.5	0	0	---	0.00	29.937 
02:30	65.2	65.2	65.2	85	60.6	0	0	---	0.00	29.941 
02:35	65.0	65.0	65.0	85	60.4	0	0	---	0.00	29.941 
02:40	64.7	64.7	64.7	86	60.4	0	0	---	0.00	29.941 
02:45	64.5	64.5	64.5	86	60.2	0	0	---	0.00	29.948 
02:50	64.3	64.3	64.3	87	60.3	0	0	---	0.00	29.948 
02:55	64.2	64.2	64.2	87	60.2	0	0	---	0.00	29.948 
03:00	64.0	64.0	64.0	87	60.0	0	0	---	0.00	29.952 
03:05	63.9	63.9	63.9	88	60.3	0	0	---	0.00	29.952 
03:10	63.7	63.7	63.7	88	60.1	0	0	---	0.00	29.952 
03:15	63.7	63.7	63.7	89	60.4	0	0	---	0.00	29.952 
03:20	63.5	63.5	63.5	89	60.2	0	0	---	0.00	29.952 
03:25	63.5	63.5	63.5	89	60.2	0	0	---	0.00	29.952 
03:30	63.4	63.4	63.4	89	60.1	0	0	---	0.00	29.955 
03:35	63.4	63.4	63.4	90	60.4	0	0	---	0.00	29.955 
03:40	63.4	63.4	63.4	90	60.4	0	0	---	0.00	29.955 
03:45	63.2	63.2	63.2	90	60.2	0	0	---	0.00	29.955 
03:50	63.1	63.1	63.1	90	60.1	0	0	---	0.00	29.955 
03:55	62.9	62.9	62.9	90	59.9	0	0	---	0.00	29.955 
04:00	62.9	62.9	62.9	90	59.9	0	0	---	0.00	29.956 
04:05	62.9	62.9	62.9	91	60.2	0	0	---	0.00	29.956 
04:10	62.7	62.7	62.7	91	60.0	0	0	---	0.00	29.956 
04:15	62.7	62.7	62.7	91	60.0	0	0	---	0.00	29.960 
04:20	62.6	62.6	62.6	91	59.9	0	0	---	0.00	29.960 
04:25	62.4	62.4	62.4	91	59.7	0	0	---	0.00	29.960 
04:30	62.3	62.3	62.3	91	59.6	0	0	---	0.00	29.957 
04:35	62.3	62.3	62.3	91	59.6	0	0	---	0.00	29.957 
04:40	62.1	62.1	62.1	92	59.7	0	0	---	0.00	29.957 
04:45	62.1	62.1	62.1	92	59.7	0	0	---	0.00	29.960 
04:50	62.0	62.0	62.0	92	59.6	0	0	---	0.00	29.960 
04:55	61.8	61.8	61.8	92	59.4	0	0	---	0.00	29.960 
05:00	61.8	61.8	61.8	92	59.4	0	0	---	0.00	29.966 
05:05	61.8	61.8	61.8	92	59.4	0	0	---	0.00	29.966 
05:10	61.6	61.6	61.6	92	59.2	0	0	---	0.00	29.966 
05:15	61.6	61.6	61.6	92	59.2	0	0	---	0.00	29.967 
05:20	61.6	61.6	61.6	93	59.6	0	0	---	0.00	29.967 
05:25	61.5	61.5	61.5	93	59.5	0	0	---	0.00	29.967 
05:30	61.5	61.5	61.5	93	59.5	0	0	---	0.00	29.972 
05:35	61.5	61.5	61.5	93	59.5	0	0	---	0.00	29.972 
05:40	61.5	61.5	61.5	93	59.5	0	0	---	0.00	29.972 
05:45	61.5	61.5	61.5	93	59.5	0	0	---	0.00	29.973 
05:50	61.5	61.5	61.5	93	59.5	0	0	---	0.00	29.973 
05:55	61.6	61.6	61.6	93	59.6	0	0	---	0.00	29.973 
06:00	61.6	61.6	61.6	93	59.6	0	0	---	0.00	29.975 
06:05	61.6	61.6	61.6	93	59.6	0	0	---	0.00	29.975 
06:10	61.6	61.6	61.6	93	59.6	0	0	---	0.00	29.975 
06:15	61.6	61.6	61.6	93	59.6	0	0	---	0.00	29.977 
06:20	61.6	61.6	61.6	93	59.6	0	0	---	0.00	29.977 
06:25	61.6	61.6	61.6	93	59.6	0	0	---	0.00	29.977 
06:30	61.8	61.8	61.8	94	60.1	0	0	---	0.00	29.986 
06:35	61.8	61.8	61.8	94	60.1	0	0	---	0.00	29.986 
06:40	61.8	61.8	61.8	94	60.1	0	0	---	0.00	29.986 
06:45	61.8	61.8	61.8	94	60.1	0	0	---	0.00	29.990 
06:50	62.0	62.0	62.0	94	60.2	0	0	---	0.00	29.990 
06:55	62.3	62.3	62.3	94	60.5	0	0	---	0.00	29.990 
07:00	62.4	62.4	62.4	94	60.6	0	0	---	0.00	29.996 
07:05	62.7	62.7	62.7	94	60.9	0	0	---	0.00	29.996 
07:10	63.1	63.1	63.1	94	61.3	0	0	---	0.00	29.996 
07:15	63.4	63.4	63.4	94	61.6	0	0	---	0.00	30.003 
07:20	63.7	63.7	63.7	94	61.9	0	0	---	0.00	30.003 
07:25	64.0	64.0	64.0	94	62.2	0	0	---	0.00	30.003 
07:30	64.3	64.3	64.3	94	62.5	0	0	---	0.00	30.005 
07:35	65.0	65.0	65.0	94	63.2	0	0	---	0.00	30.005 
07:40	65.5	65.5	65.5	93	63.4	0	0	---	0.00	30.005 
07:45	66.3	66.3	66.3	88	62.6	0	1	112	0.00	30.003 
07:50	67.3	67.3	67.3	83	62.0	1	2	90	0.00	30.003 
07:55	68.6	68.6	68.6	80	62.2	1	4	112	0.00	30.003 
08:00	69.8	69.8	69.8	78	62.6	1	3	112	0.00	30.003 
08:05	70.6	70.6	70.6	77	63.0	1	3	112	0.00	30.003 
08:10	71.1	71.1	71.1	76	63.1	1	3	90	0.00	30.003 
08:15	71.5	71.5	71.5	76	63.5	1	2	90	0.00	30.012 
08:20	71.5	71.5	71.5	75	63.1	1	2	112	0.00	30.012 
08:25	71.5	71.5	71.5	75	63.1	1	4	112	0.00	30.012 
08:30	71.5	71.5	71.5	75	63.1	1	3	135	0.00	30.018 
08:35	71.5	71.5	71.5	75	63.1	2	4	68	0.00	30.018 
08:40	71.6	71.6	71.6	75	63.2	0	3	68	0.00	30.018 
08:45	71.8	71.8	71.8	75	63.4	1	3	90	0.00	30.019 
08:50	72.0	72.0	72.0	75	63.6	1	3	90	0.00	30.019 
08:55	72.1	72.1	72.1	75	63.7	1	4	112	0.00	30.019 
09:00	72.3	72.3	72.3	74	63.5	0	2	112	0.00	30.021 
09:05	72.5	72.5	72.5	74	63.7	1	3	112	0.00	30.021 
09:10	72.8	72.8	72.8	74	64.0	1	4	90	0.00	30.021 
09:15	73.7	73.7	73.7	73	64.5	1	2	90	0.00	30.019 
09:20	74.6	74.6	74.6	71	64.6	2	4	90	0.00	30.019 
09:25	75.4	75.4	77.2	68	64.1	1	5	90	0.00	30.019 
09:30	76.3	76.3	78.1	67	64.5	2	5	112	0.00	30.020 
09:35	76.8	76.8	78.5	70	66.3	1	4	248	0.00	30.020 
09:40	77.4	77.4	79.2	66	65.1	2	5	90	0.00	30.020 
09:45	77.9	77.9	79.8	66	65.6	1	5	22	0.00	30.021 
09:50	78.3	78.3	80.2	65	65.5	2	6	90	0.00	30.021 
09:55	78.5	78.5	80.4	64	65.3	2	7	90	0.00	30.021 
10:00	78.6	78.6	80.6	65	65.8	2	4	270	0.00	30.024 
10:05	78.6	78.6	80.5	64	65.4	2	5	248	0.00	30.024 
10:10	78.6	78.6	80.6	65	65.8	2	6	112	0.00	30.024 
10:15	79.4	79.4	81.5	64	66.1	2	6	112	0.00	30.024 
10:20	79.9	79.9	81.9	62	65.7	2	5	90	0.00	30.024 
10:25	79.8	79.8	81.9	63	66.1	3	6	248	0.00	30.024 
10:30	80.1	80.1	82.3	63	66.3	2	7	68	0.00	30.028 
10:35	80.5	80.5	82.9	64	67.2	2	5	90	0.00	30.028 
10:40	81.1	81.1	83.5	62	66.8	2	4	68	0.00	30.028 
10:45	81.6	81.6	84.6	64	68.2	2	5	90	0.00	30.028 
10:50	81.8	81.8	84.9	64	68.4	2	5	248	0.00	30.028 
10:55	82.4	82.4	85.4	62	68.0	2	5	248	0.00	30.028 
11:00	82.6	82.6	85.3	60	67.3	2	5	248	0.00	30.023 
11:05	83.2	83.2	86.5	61	68.3	2	4	90	0.00	30.023 
11:10	83.4	83.4	86.5	60	68.0	3	6	90	0.00	30.023 
11:15	83.8	83.8	87.2	60	68.4	1	5	112	0.00	30.022 
11:20	84.1	84.1	87.4	59	68.2	2	5	248	0.00	30.022 
11:25	84.5	84.5	88.1	59	68.6	2	5	248	0.00	30.022 
11:30	84.9	84.9	88.5	58	68.4	1	3	248	0.00	30.024 
11:35	85.1	85.1	88.8	58	68.6	2	5	270	0.00	30.024 
11:40	85.3	85.3	88.8	57	68.3	2	5	270	0.00	30.024 
11:45	85.5	85.5	90.2	60	70.0	2	4	248	0.00	30.025 
11:50	85.9	85.9	90.2	58	69.4	2	4	270	0.00	30.025 
11:55	85.9	85.9	90.6	59	69.9	2	4	270	0.00	30.025 
12:00	85.7	85.7	89.2	56	68.2	3	7	270	0.00	30.026 
12:05	85.9	85.9	90.2	58	69.4	2	5	248	0.00	30.026 
12:10	86.3	86.3	91.3	59	70.2	1	3	248	0.00	30.026 
12:15	86.5	86.5	90.6	56	68.9	2	4	270	0.00	30.025 
12:20	86.5	86.5	90.3	55	68.4	2	4	248	0.00	30.025 
12:25	86.5	86.5	90.6	56	68.9	2	7	270	0.00	30.025 
12:30	86.7	86.7	91.0	56	69.1	2	5	270	0.00	30.025 
12:35	87.0	87.0	91.5	56	69.4	3	6	112	0.00	30.025 
12:40	87.2	87.2	92.7	58	70.6	1	3	68	0.00	30.025 
12:45	87.6	87.6	93.4	58	71.0	2	7	68	0.00	30.024 
12:50	87.2	87.2	91.9	56	69.6	3	6	270	0.00	30.024 
12:55	87.4	87.4	92.6	57	70.3	2	7	270	0.00	30.024 
13:00	87.6	87.6	92.6	56	69.9	2	5	248	0.00	30.017 
13:05	87.6	87.6	93.4	58	71.0	3	9	90	0.00	30.017 
13:10	87.4	87.4	92.6	57	70.3	2	6	270	0.00	30.017 
13:15	87.2	87.2	91.9	56	69.6	2	5	270	0.00	30.016 
13:20	87.6	87.6	93.0	57	70.4	2	6	248	0.00	30.016 
13:25	87.8	87.8	92.6	55	69.6	3	7	248	0.00	30.016 
13:30	88.2	88.2	94.2	57	71.0	1	5	270	0.00	30.012 
13:35	88.0	88.0	92.2	53	68.7	2	9	270	0.00	30.012 
13:40	87.8	87.8	93.0	56	70.1	1	3	248	0.00	30.012 
13:45	87.8	87.8	93.4	57	70.6	2	6	292	0.00	30.012 
13:50	87.8	87.8	92.2	54	69.0	2	4	270	0.00	30.012 
13:55	87.4	87.4	91.9	55	69.2	1	2	90	0.00	30.012 
14:00	88.0	88.0	93.8	57	70.8	1	3	292	0.00	30.011 
14:05	88.6	88.6	93.3	53	69.2	1	4	270	0.00	30.011 
14:10	88.8	88.8	94.1	54	70.0	1	6	270	0.00	30.011 
14:15	88.8	88.8	93.7	53	69.4	2	5	270	0.00	30.012 
14:20	88.8	88.8	92.8	51	68.3	2	5	270	0.00	30.012 
14:25	89.0	89.0	93.6	52	69.0	2	5	270	0.00	30.012 
14:30	89.9	89.9	93.5	48	67.5	1	3	90	0.00	30.005 
14:35	89.7	89.7	94.0	50	68.5	2	6	270	0.00	30.005 
14:40	90.1	90.1	94.8	50	68.9	2	4	90	0.00	30.005 
14:45	90.3	90.3	95.2	50	69.1	1	4	90	0.00	30.003 
14:50	89.9	89.9	93.5	48	67.5	2	6	248	0.00	30.003 
14:55	89.3	89.3	92.9	49	67.6	1	4	248	0.00	30.003 
15:00	89.3	89.3	92.9	49	67.6	2	5	270	0.00	30.000 
15:05	89.9	89.9	94.4	50	68.7	1	4	270	0.00	30.000 
15:10	90.5	90.5	96.5	52	70.4	1	4	248	0.00	30.000 
15:15	91.2	91.2	94.5	45	66.8	2	5	270	0.00	29.994 
15:20	91.4	91.4	95.8	47	68.3	1	4	292	0.00	29.994 
15:25	91.2	91.2	94.1	44	66.2	2	4	270	0.00	29.994 
15:30	90.7	90.7	93.7	45	66.4	2	6	248	0.00	29.984 
15:35	91.0	91.0	95.1	47	67.9	1	4	248	0.00	29.984 
15:40	91.2	91.2	95.0	46	67.5	2	5	270	0.00	29.984 
15:45	91.0	91.0	94.6	46	67.3	2	5	270	0.00	29.982 
15:50	91.0	91.0	95.1	47	67.9	1	3	270	0.00	29.982 
15:55	91.0	91.0	93.8	44	66.0	2	6	270	0.00	29.982 
16:00	90.7	90.7	94.1	46	67.0	3	7	90	0.00	29.981 
16:05	90.5	90.5	94.2	47	67.5	1	4	22	0.00	29.981 
16:10	90.7	90.7	93.7	45	66.4	2	7	90	0.00	29.981 
16:15	91.2	91.2	94.5	45	66.8	1	4	270	0.00	29.983 
16:20	91.6	91.6	94.4	43	65.9	2	5	248	0.00	29.983 
16:25	91.4	91.4	94.5	44	66.4	2	4	270	0.00	29.983 
16:30	91.2	91.2	94.5	45	66.8	3	9	90	0.00	29.979 
16:35	91.0	91.0	94.2	45	66.7	2	6	90	0.00	29.979 
16:40	90.5	90.5	92.9	44	65.6	2	4	248	0.00	29.979 
16:45	90.5	90.5	94.2	47	67.5	2	5	68	0.00	29.977 
16:50	90.1	90.1	93.1	46	66.5	2	6	45	0.00	29.977 
16:55	89.5	89.5	92.1	46	65.9	2	6	112	0.00	29.977 
17:00	89.9	89.9	93.5	48	67.5	1	3	135	0.00	29.975 
17:05	90.5	90.5	93.3	45	66.2	2	4	248	0.00	29.975 
17:10	90.5	90.5	93.8	46	66.8	2	4	270	0.00	29.975 
17:15	90.5	90.5	95.1	49	68.7	1	3	0	0.00	29.973 
17:20	90.3	90.3	93.4	46	66.7	2	4	90	0.00	29.973 
17:25	89.5	89.5	92.8	48	67.2	1	3	90	0.00	29.973 
17:30	88.8	88.8	92.4	50	67.7	0	2	158	0.00	29.974 
17:35	88.8	88.8	92.0	49	67.1	2	4	270	0.00	29.974 
17:40	89.7	89.7	92.8	47	66.7	2	4	270	0.00	29.974 
17:45	90.1	90.1	93.1	46	66.5	1	4	270	0.00	29.969 
17:50	90.3	90.3	93.4	46	66.7	2	4	112	0.00	29.969 
17:55	90.5	90.5	94.6	48	68.1	2	3	112	0.00	29.969 
18:00	90.3	90.3	93.4	46	66.7	2	5	112	0.00	29.966 
18:05	89.9	89.9	92.7	46	66.3	2	5	90	0.00	29.966 
18:10	89.5	89.5	92.4	47	66.6	1	4	90	0.00	29.966 
18:15	89.5	89.5	92.8	48	67.2	1	4	90	0.00	29.966 
18:20	89.5	89.5	92.1	46	65.9	2	4	112	0.00	29.966 
18:25	89.5	89.5	93.2	49	67.8	2	3	90	0.00	29.966 
18:30	89.5	89.5	92.8	48	67.2	1	4	90	0.00	29.963 
18:35	89.0	89.0	91.6	47	66.1	2	5	112	0.00	29.963 
18:40	88.8	88.8	91.3	47	65.9	2	6	90	0.00	29.963 
18:45	88.6	88.6	91.3	48	66.4	2	6	90	0.00	29.961 
18:50	88.4	88.4	91.0	48	66.2	1	4	22	0.00	29.961 
18:55	88.2	88.2	91.4	50	67.2	2	5	90	0.00	29.961 
19:00	88.2	88.2	91.8	51	67.7	1	4	90	0.00	29.965 
19:05	88.0	88.0	91.4	51	67.6	2	6	90	0.00	29.965 
19:10	87.8	87.8	91.4	52	67.9	1	3	135	0.00	29.965 
19:15	87.6	87.6	91.1	52	67.8	1	3	90	0.00	29.960 
19:20	87.4	87.4	90.7	52	67.6	2	4	90	0.00	29.960 
19:25	87.4	87.4	91.1	53	68.1	2	5	90	0.00	29.960 
19:30	87.2	87.2	91.1	54	68.5	1	5	90	0.00	29.953 
19:35	87.0	87.0	90.8	54	68.3	1	4	68	0.00	29.953 
19:40	86.5	86.5	89.9	54	67.8	2	5	112	0.00	29.953 
19:45	86.3	86.3	89.9	55	68.2	1	3	90	0.00	29.953 
19:50	86.1	86.1	89.6	55	68.0	1	4	90	0.00	29.953 
19:55	86.1	86.1	89.9	56	68.5	0	1	90	0.00	29.953 
20:00	85.7	85.7	89.2	56	68.2	0	3	90	0.00	29.957 
20:05	85.5	85.5	88.9	56	68.0	0	3	90	0.00	29.957 
20:10	85.5	85.5	88.6	55	67.5	1	4	112	0.00	29.957 
20:15	85.5	85.5	88.9	56	68.0	1	4	112	0.00	29.955 
20:20	85.3	85.3	88.8	57	68.3	1	3	68	0.00	29.955 
20:25	84.9	84.9	88.2	57	67.9	1	3	90	0.00	29.955 
20:30	84.7	84.7	87.9	57	67.7	1	3	90	0.00	29.961 
20:35	84.5	84.5	87.8	58	68.1	1	3	90	0.00	29.961 
20:40	84.3	84.3	87.5	58	67.9	0	2	90	0.00	29.961 
20:45	84.1	84.1	87.2	58	67.7	0	1	90	0.00	29.962 
20:50	83.8	83.8	86.9	59	67.9	0	1	90	0.00	29.962 
20:55	83.8	83.8	86.9	59	67.9	0	1	90	0.00	29.962 
21:00	83.6	83.6	86.9	60	68.2	0	1	90	0.00	29.962 
21:05	83.4	83.4	86.5	60	68.0	0	2	90	0.00	29.962 
21:10	83.0	83.0	85.9	60	67.7	0	1	90	0.00	29.962 
21:15	82.8	82.8	85.8	61	67.9	0	1	90	0.00	29.958 
21:20	82.6	82.6	85.5	61	67.8	0	1	90	0.00	29.958 
21:25	82.2	82.2	85.1	62	67.9	0	1	90	0.00	29.958 
21:30	82.0	82.0	84.8	62	67.7	0	1	90	0.00	29.964 
21:35	81.8	81.8	84.7	63	67.9	0	0	---	0.00	29.964 
21:40	81.4	81.4	84.3	64	68.0	0	0	---	0.00	29.964 
21:45	81.1	81.1	83.8	64	67.7	0	1	90	0.00	29.975 
21:50	81.1	81.1	83.8	64	67.7	0	1	90	0.00	29.975 
21:55	80.9	80.9	83.7	65	68.0	0	0	---	0.00	29.975 
22:00	80.5	80.5	83.1	65	67.6	0	1	90	0.00	29.977 
22:05	80.3	80.3	82.8	65	67.4	0	1	90	0.00	29.977 
22:10	80.1	80.1	82.6	66	67.7	0	1	90	0.00	29.977 
22:15	79.9	79.9	82.5	67	67.9	0	0	---	0.00	29.976 
22:20	79.6	79.6	82.0	67	67.7	0	0	---	0.00	29.976 
22:25	79.4	79.4	81.8	68	67.9	0	1	90	0.00	29.976 
22:30	79.2	79.2	81.5	68	67.7	0	1	90	0.00	29.982 
22:35	79.0	79.0	81.3	68	67.5	0	0	---	0.00	29.982 
22:40	78.8	78.8	81.1	69	67.7	0	0	---	0.00	29.982 
22:45	78.6	78.6	80.8	69	67.6	0	0	---	0.00	29.983 
22:50	78.3	78.3	80.4	70	67.7	0	0	---	0.00	29.983 
22:55	78.1	78.1	80.2	70	67.5	0	1	90	0.00	29.983 
23:00	78.1	78.1	80.2	70	67.5	0	1	90	0.00	29.979 
23:05	77.9	77.9	79.9	70	67.3	0	0	---	0.00	29.979 
23:10	77.7	77.7	79.7	71	67.5	0	0	---	0.00	29.979 
23:15	77.7	77.7	79.7	71	67.5	0	0	---	0.00	29.987 
23:20	77.6	77.6	79.5	71	67.4	0	0	---	0.00	29.987 
23:25	77.4	77.4	79.3	71	67.2	0	1	90	0.00	29.987 
23:30	77.4	77.4	79.3	72	67.6	0	0	---	0.00	29.989 
23:35	77.2	77.2	79.0	72	67.5	0	1	90	0.00	29.989 
23:40	77.0	77.0	78.7	73	67.7	0	0	---	0.00	29.989 
23:45	76.7	76.7	78.3	73	67.4	0	0	---	0.00	29.991 
23:50	76.5	76.5	78.1	74	67.6	0	0	---	0.00	29.991 
23:55	76.1	76.1	77.5	74	67.2	0	0	---	0.00	29.991 

CoCoRaHS
IN-AL-39
A2 Web Hosting
Creative Commons License
GoDaddy
Look for:

loaded 2017-12-12 07:30:34 • last modified 2010-11-18 10:43:29
Privacy PolicyDisclaimer
• wx.awcolley.com is powered by PmWiki v.2002016 •
• all content (unless otherwise noted) © 2017 A W Colley